Cozumel, ROO, Mexico
Current Conditions -  °F | °C
As of 10:45 PM on Monday 20 Oct 2014 (Local Time) from MMCZ Reporting Station
Broken Clouds Broken Clouds  
Wind Chill: 72°   Ceiling: 25000
Heat Index: 72°   Visibility: 7mi
Dew Point: 72°   Wind: 3mph
Humidity: 100%   Direction: 110°ESE
Pressure: 29.88"   Gusts: NA
Location:  20.43°N, 86.88°W
Report Text: MMCZ 210345Z 11003KT 7SM SCT015 SCT080 BKN250 22/22 A2988 RMK 8/477 RTS
Loading
Personal Weather Stations






























Interactive Weather Map
Tropical Storm Tracking
New forecast layout! Learn more

10-Day Weather Forecast

Advertisements
Track Severe Weather on mobile